sensor_id;sensor_type;location;lat;lon;timestamp;P1;durP1;ratioP1;P2;durP2;ratioP2
54259;SDS011;40172;53.022;7.012;2023-03-01T00:01:07;16.20;;;7.85;;
54259;SDS011;40172;53.022;7.012;2023-03-01T00:03:37;10.68;;;5.82;;
54259;SDS011;40172;53.022;7.012;2023-03-01T00:06:03;15.93;;;6.78;;
54259;SDS011;40172;53.022;7.012;2023-03-01T00:08:30;13.52;;;6.68;;
54259;SDS011;40172;53.022;7.012;2023-03-01T00:11:05;12.05;;;7.18;;
54259;SDS011;40172;53.022;7.012;2023-03-01T00:13:31;15.63;;;7.32;;
54259;SDS011;40172;53.022;7.012;2023-03-01T00:15:57;14.40;;;8.23;;
54259;SDS011;40172;53.022;7.012;2023-03-01T00:18:22;10.13;;;6.03;;
54259;SDS011;40172;53.022;7.012;2023-03-01T00:20:49;12.20;;;4.85;;
54259;SDS011;40172;53.022;7.012;2023-03-01T00:23:19;10.60;;;6.10;;
54259;SDS011;40172;53.022;7.012;2023-03-01T00:25:44;10.77;;;5.45;;
54259;SDS011;40172;53.022;7.012;2023-03-01T00:28:10;11.48;;;6.93;;
54259;SDS011;40172;53.022;7.012;2023-03-01T00:30:36;12.43;;;6.35;;
54259;SDS011;40172;53.022;7.012;2023-03-01T00:33:01;12.70;;;6.18;;
54259;SDS011;40172;53.022;7.012;2023-03-01T00:35:27;10.40;;;6.05;;
54259;SDS011;40172;53.022;7.012;2023-03-01T00:37:53;14.27;;;7.38;;
54259;SDS011;40172;53.022;7.012;2023-03-01T00:40:29;13.45;;;7.00;;
54259;SDS011;40172;53.022;7.012;2023-03-01T00:45:22;17.50;;;7.45;;
54259;SDS011;40172;53.022;7.012;2023-03-01T00:47:48;13.73;;;7.63;;
54259;SDS011;40172;53.022;7.012;2023-03-01T00:50:15;9.15;;;4.72;;
54259;SDS011;40172;53.022;7.012;2023-03-01T00:52:41;8.73;;;4.97;;
54259;SDS011;40172;53.022;7.012;2023-03-01T00:55:07;6.63;;;4.22;;
54259;SDS011;40172;53.022;7.012;2023-03-01T00:57:33;10.98;;;6.55;;
54259;SDS011;40172;53.022;7.012;2023-03-01T00:59:59;12.80;;;6.03;;
54259;SDS011;40172;53.022;7.012;2023-03-01T01:02:25;13.77;;;6.93;;
54259;SDS011;40172;53.022;7.012;2023-03-01T01:04:51;13.93;;;6.40;;
54259;SDS011;40172;53.022;7.012;2023-03-01T01:07:17;10.02;;;5.65;;
54259;SDS011;40172;53.022;7.012;2023-03-01T01:09:45;12.30;;;7.40;;
54259;SDS011;40172;53.022;7.012;2023-03-01T01:12:10;18.20;;;8.30;;
54259;SDS011;40172;53.022;7.012;2023-03-01T01:14:36;14.07;;;7.47;;
54259;SDS011;40172;53.022;7.012;2023-03-01T01:17:02;13.02;;;8.52;;
54259;SDS011;40172;53.022;7.012;2023-03-01T01:19:28;17.13;;;7.75;;
54259;SDS011;40172;53.022;7.012;2023-03-01T01:21:53;21.73;;;8.23;;
54259;SDS011;40172;53.022;7.012;2023-03-01T01:24:19;9.00;;;4.90;;
54259;SDS011;40172;53.022;7.012;2023-03-01T01:26:45;10.82;;;5.38;;
54259;SDS011;40172;53.022;7.012;2023-03-01T01:29:11;15.50;;;6.00;;
54259;SDS011;40172;53.022;7.012;2023-03-01T01:31:37;7.22;;;4.18;;
54259;SDS011;40172;53.022;7.012;2023-03-01T01:34:05;7.45;;;3.97;;
54259;SDS011;40172;53.022;7.012;2023-03-01T01:36:32;14.45;;;5.63;;
54259;SDS011;40172;53.022;7.012;2023-03-01T01:38:58;19.35;;;4.18;;
54259;SDS011;40172;53.022;7.012;2023-03-01T01:41:25;7.15;;;4.95;;
54259;SDS011;40172;53.022;7.012;2023-03-01T01:44:11;7.45;;;3.97;;
54259;SDS011;40172;53.022;7.012;2023-03-01T01:47:22;8.82;;;4.43;;
54259;SDS011;40172;53.022;7.012;2023-03-01T01:57:37;8.02;;;4.70;;
54259;SDS011;40172;53.022;7.012;2023-03-01T02:00:10;10.88;;;5.88;;
54259;SDS011;40172;53.022;7.012;2023-03-01T02:02:39;12.32;;;5.65;;
54259;SDS011;40172;53.022;7.012;2023-03-01T02:08:03;19.05;;;8.10;;
54259;SDS011;40172;53.022;7.012;2023-03-01T02:10:29;8.25;;;4.63;;
54259;SDS011;40172;53.022;7.012;2023-03-01T02:12:58;12.90;;;6.30;;
54259;SDS011;40172;53.022;7.012;2023-03-01T02:15:24;12.40;;;5.95;;
54259;SDS011;40172;53.022;7.012;2023-03-01T02:17:51;14.68;;;5.88;;
54259;SDS011;40172;53.022;7.012;2023-03-01T02:20:23;11.90;;;5.97;;
54259;SDS011;40172;53.022;7.012;2023-03-01T02:23:01;11.43;;;5.00;;
54259;SDS011;40172;53.022;7.012;2023-03-01T02:28:30;10.07;;;6.05;;
54259;SDS011;40172;53.022;7.012;2023-03-01T02:31:00;13.20;;;7.00;;
54259;SDS011;40172;53.022;7.012;2023-03-01T02:33:46;20.23;;;7.28;;
54259;SDS011;40172;53.022;7.012;2023-03-01T02:36:21;12.55;;;7.32;;
54259;SDS011;40172;53.022;7.012;2023-03-01T02:38:52;11.13;;;5.63;;
54259;SDS011;40172;53.022;7.012;2023-03-01T02:41:21;17.20;;;7.45;;
54259;SDS011;40172;53.022;7.012;2023-03-01T02:43:48;10.27;;;5.75;;
54259;SDS011;40172;53.022;7.012;2023-03-01T02:46:18;12.10;;;7.03;;
54259;SDS011;40172;53.022;7.012;2023-03-01T02:48:48;11.77;;;6.32;;
54259;SDS011;40172;53.022;7.012;2023-03-01T02:54:20;6.80;;;3.60;;
54259;SDS011;40172;53.022;7.012;2023-03-01T02:56:48;13.23;;;6.60;;
54259;SDS011;40172;53.022;7.012;2023-03-01T02:59:15;13.18;;;4.70;;
54259;SDS011;40172;53.022;7.012;2023-03-01T03:01:42;11.73;;;4.28;;
54259;SDS011;40172;53.022;7.012;2023-03-01T03:04:10;25.00;;;6.47;;
54259;SDS011;40172;53.022;7.012;2023-03-01T03:06:42;11.65;;;6.20;;
54259;SDS011;40172;53.022;7.012;2023-03-01T03:09:08;12.55;;;6.55;;
54259;SDS011;40172;53.022;7.012;2023-03-01T03:11:34;14.43;;;6.00;;
54259;SDS011;40172;53.022;7.012;2023-03-01T03:14:01;13.57;;;6.63;;
54259;SDS011;40172;53.022;7.012;2023-03-01T03:16:27;17.65;;;8.15;;
54259;SDS011;40172;53.022;7.012;2023-03-01T03:18:54;8.18;;;5.60;;
54259;SDS011;40172;53.022;7.012;2023-03-01T03:21:30;17.65;;;6.35;;
54259;SDS011;40172;53.022;7.012;2023-03-01T03:23:56;8.95;;;5.75;;
54259;SDS011;40172;53.022;7.012;2023-03-01T03:26:22;15.63;;;8.65;;
54259;SDS011;40172;53.022;7.012;2023-03-01T03:28:48;16.67;;;7.13;;
54259;SDS011;40172;53.022;7.012;2023-03-01T03:31:13;9.18;;;6.22;;
54259;SDS011;40172;53.022;7.012;2023-03-01T03:33:39;10.60;;;5.00;;
54259;SDS011;40172;53.022;7.012;2023-03-01T03:36:05;12.48;;;6.38;;
54259;SDS011;40172;53.022;7.012;2023-03-01T03:38:31;12.57;;;6.28;;
54259;SDS011;40172;53.022;7.012;2023-03-01T03:43:30;10.15;;;5.22;;
54259;SDS011;40172;53.022;7.012;2023-03-01T03:45:57;11.82;;;6.78;;
54259;SDS011;40172;53.022;7.012;2023-03-01T03:48:23;7.28;;;4.40;;
54259;SDS011;40172;53.022;7.012;2023-03-01T03:50:50;14.50;;;6.85;;
54259;SDS011;40172;53.022;7.012;2023-03-01T03:53:18;16.55;;;7.05;;
54259;SDS011;40172;53.022;7.012;2023-03-01T03:55:44;9.90;;;6.07;;
54259;SDS011;40172;53.022;7.012;2023-03-01T03:58:14;14.70;;;6.13;;
54259;SDS011;40172;53.022;7.012;2023-03-01T04:00:42;12.40;;;7.50;;
54259;SDS011;40172;53.022;7.012;2023-03-01T04:03:09;12.90;;;6.68;;
54259;SDS011;40172;53.022;7.012;2023-03-01T04:05:37;11.57;;;5.95;;
54259;SDS011;40172;53.022;7.012;2023-03-01T04:08:03;23.00;;;7.38;;
54259;SDS011;40172;53.022;7.012;2023-03-01T04:10:39;10.40;;;5.55;;
54259;SDS011;40172;53.022;7.012;2023-03-01T04:13:09;11.65;;;6.80;;
54259;SDS011;40172;53.022;7.012;2023-03-01T04:15:39;9.18;;;5.97;;
54259;SDS011;40172;53.022;7.012;2023-03-01T04:18:05;14.48;;;7.10;;
54259;SDS011;40172;53.022;7.012;2023-03-01T04:20:33;7.40;;;4.60;;
54259;SDS011;40172;53.022;7.012;2023-03-01T04:28:21;11.38;;;6.78;;
54259;SDS011;40172;53.022;7.012;2023-03-01T04:30:51;14.93;;;7.20;;
54259;SDS011;40172;53.022;7.012;2023-03-01T04:33:18;7.90;;;5.50;;
54259;SDS011;40172;53.022;7.012;2023-03-01T04:35:44;8.75;;;5.25;;
54259;SDS011;40172;53.022;7.012;2023-03-01T04:38:09;11.48;;;6.10;;
54259;SDS011;40172;53.022;7.012;2023-03-01T04:40:35;12.40;;;6.97;;
54259;SDS011;40172;53.022;7.012;2023-03-01T04:43:02;10.32;;;5.50;;
54259;SDS011;40172;53.022;7.012;2023-03-01T04:45:28;7.57;;;4.50;;
54259;SDS011;40172;53.022;7.012;2023-03-01T04:47:54;6.38;;;4.18;;
54259;SDS011;40172;53.022;7.012;2023-03-01T04:50:23;10.80;;;5.10;;
54259;SDS011;40172;53.022;7.012;2023-03-01T04:52:49;13.18;;;6.32;;
54259;SDS011;40172;53.022;7.012;2023-03-01T04:55:15;9.10;;;5.65;;
54259;SDS011;40172;53.022;7.012;2023-03-01T04:57:40;9.63;;;6.20;;
54259;SDS011;40172;53.022;7.012;2023-03-01T05:00:07;11.40;;;4.53;;
54259;SDS011;40172;53.022;7.012;2023-03-01T05:02:58;12.88;;;5.47;;
54259;SDS011;40172;53.022;7.012;2023-03-01T05:05:26;6.13;;;3.30;;
54259;SDS011;40172;53.022;7.012;2023-03-01T05:07:58;8.38;;;5.22;;
54259;SDS011;40172;53.022;7.012;2023-03-01T05:10:26;11.60;;;5.47;;
54259;SDS011;40172;53.022;7.012;2023-03-01T05:12:54;8.65;;;4.93;;
54259;SDS011;40172;53.022;7.012;2023-03-01T05:15:22;6.50;;;3.38;;
54259;SDS011;40172;53.022;7.012;2023-03-01T05:17:50;5.18;;;3.42;;
54259;SDS011;40172;53.022;7.012;2023-03-01T05:20:17;8.48;;;4.95;;
54259;SDS011;40172;53.022;7.012;2023-03-01T05:22:42;5.68;;;4.05;;
54259;SDS011;40172;53.022;7.012;2023-03-01T05:25:08;6.75;;;4.63;;
54259;SDS011;40172;53.022;7.012;2023-03-01T05:27:34;14.30;;;5.63;;
54259;SDS011;40172;53.022;7.012;2023-03-01T05:30:01;14.25;;;4.63;;
54259;SDS011;40172;53.022;7.012;2023-03-01T05:32:38;7.97;;;4.57;;
54259;SDS011;40172;53.022;7.012;2023-03-01T05:35:09;16.15;;;5.55;;
54259;SDS011;40172;53.022;7.012;2023-03-01T05:37:38;16.90;;;5.70;;
54259;SDS011;40172;53.022;7.012;2023-03-01T05:40:08;13.52;;;6.95;;
54259;SDS011;40172;53.022;7.012;2023-03-01T05:42:41;8.70;;;5.13;;
54259;SDS011;40172;53.022;7.012;2023-03-01T05:45:07;6.57;;;3.55;;
54259;SDS011;40172;53.022;7.012;2023-03-01T05:47:34;3.30;;;2.95;;
54259;SDS011;40172;53.022;7.012;2023-03-01T05:50:00;10.77;;;4.88;;
54259;SDS011;40172;53.022;7.012;2023-03-01T05:52:26;9.70;;;4.15;;
54259;SDS011;40172;53.022;7.012;2023-03-01T05:54:52;7.03;;;4.65;;
54259;SDS011;40172;53.022;7.012;2023-03-01T05:57:17;6.90;;;3.13;;
54259;SDS011;40172;53.022;7.012;2023-03-01T05:59:43;6.97;;;3.88;;
54259;SDS011;40172;53.022;7.012;2023-03-01T06:02:08;8.32;;;4.68;;
54259;SDS011;40172;53.022;7.012;2023-03-01T06:04:34;7.55;;;4.68;;
54259;SDS011;40172;53.022;7.012;2023-03-01T06:06:59;7.03;;;4.15;;
54259;SDS011;40172;53.022;7.012;2023-03-01T06:09:25;6.05;;;3.95;;
54259;SDS011;40172;53.022;7.012;2023-03-01T06:11:51;5.75;;;3.80;;
54259;SDS011;40172;53.022;7.012;2023-03-01T06:14:16;6.63;;;3.78;;
54259;SDS011;40172;53.022;7.012;2023-03-01T06:16:42;9.00;;;4.60;;
54259;SDS011;40172;53.022;7.012;2023-03-01T06:19:07;10.57;;;3.70;;
54259;SDS011;40172;53.022;7.012;2023-03-01T06:21:33;19.38;;;5.03;;
54259;SDS011;40172;53.022;7.012;2023-03-01T06:23:58;11.10;;;6.55;;
54259;SDS011;40172;53.022;7.012;2023-03-01T06:26:24;9.32;;;6.10;;
54259;SDS011;40172;53.022;7.012;2023-03-01T06:28:50;8.88;;;5.70;;
54259;SDS011;40172;53.022;7.012;2023-03-01T06:31:15;10.88;;;5.60;;
54259;SDS011;40172;53.022;7.012;2023-03-01T06:33:41;13.52;;;6.22;;
54259;SDS011;40172;53.022;7.012;2023-03-01T06:36:07;7.93;;;4.80;;
54259;SDS011;40172;53.022;7.012;2023-03-01T06:38:33;8.90;;;4.93;;
54259;SDS011;40172;53.022;7.012;2023-03-01T06:40:58;9.35;;;5.22;;
54259;SDS011;40172;53.022;7.012;2023-03-01T06:43:24;9.50;;;5.65;;
54259;SDS011;40172;53.022;7.012;2023-03-01T06:45:50;7.78;;;4.97;;
54259;SDS011;40172;53.022;7.012;2023-03-01T06:48:15;8.85;;;4.65;;
54259;SDS011;40172;53.022;7.012;2023-03-01T06:50:41;7.45;;;4.70;;
54259;SDS011;40172;53.022;7.012;2023-03-01T06:53:07;10.73;;;6.05;;
54259;SDS011;40172;53.022;7.012;2023-03-01T06:55:33;9.20;;;6.13;;
54259;SDS011;40172;53.022;7.012;2023-03-01T06:57:59;10.30;;;6.00;;
54259;SDS011;40172;53.022;7.012;2023-03-01T07:00:25;15.32;;;5.47;;
54259;SDS011;40172;53.022;7.012;2023-03-01T07:02:52;9.52;;;4.85;;
54259;SDS011;40172;53.022;7.012;2023-03-01T07:05:17;14.15;;;7.78;;
54259;SDS011;40172;53.022;7.012;2023-03-01T07:07:43;196.07;;;12.48;;
54259;SDS011;40172;53.022;7.012;2023-03-01T07:10:09;201.93;;;16.38;;
54259;SDS011;40172;53.022;7.012;2023-03-01T07:12:36;256.83;;;18.10;;
54259;SDS011;40172;53.022;7.012;2023-03-01T07:15:02;150.95;;;15.52;;
54259;SDS011;40172;53.022;7.012;2023-03-01T07:17:28;338.92;;;20.23;;
54259;SDS011;40172;53.022;7.012;2023-03-01T07:19:54;220.75;;;17.42;;
54259;SDS011;40172;53.022;7.012;2023-03-01T07:22:19;199.18;;;15.02;;
54259;SDS011;40172;53.022;7.012;2023-03-01T07:24:45;353.67;;;20.48;;
54259;SDS011;40172;53.022;7.012;2023-03-01T07:27:11;315.02;;;18.23;;
54259;SDS011;40172;53.022;7.012;2023-03-01T07:29:36;272.13;;;17.08;;
54259;SDS011;40172;53.022;7.012;2023-03-01T07:32:02;353.48;;;19.77;;
54259;SDS011;40172;53.022;7.012;2023-03-01T07:34:29;206.90;;;16.15;;
54259;SDS011;40172;53.022;7.012;2023-03-01T07:36:54;152.13;;;17.40;;
54259;SDS011;40172;53.022;7.012;2023-03-01T07:39:20;102.28;;;17.70;;
54259;SDS011;40172;53.022;7.012;2023-03-01T07:41:47;174.38;;;18.27;;
54259;SDS011;40172;53.022;7.012;2023-03-01T07:44:17;214.52;;;19.73;;
54259;SDS011;40172;53.022;7.012;2023-03-01T07:46:43;231.40;;;17.25;;
54259;SDS011;40172;53.022;7.012;2023-03-01T07:49:09;92.80;;;15.00;;
54259;SDS011;40172;53.022;7.012;2023-03-01T07:51:35;278.63;;;22.65;;
54259;SDS011;40172;53.022;7.012;2023-03-01T07:54:01;144.45;;;13.88;;
54259;SDS011;40172;53.022;7.012;2023-03-01T07:56:26;141.80;;;13.27;;
54259;SDS011;40172;53.022;7.012;2023-03-01T07:58:52;270.20;;;23.02;;
54259;SDS011;40172;53.022;7.012;2023-03-01T08:01:18;252.75;;;24.58;;
54259;SDS011;40172;53.022;7.012;2023-03-01T08:03:48;238.40;;;14.55;;
54259;SDS011;40172;53.022;7.012;2023-03-01T08:06:14;185.63;;;16.10;;
54259;SDS011;40172;53.022;7.012;2023-03-01T08:08:41;184.13;;;15.40;;
54259;SDS011;40172;53.022;7.012;2023-03-01T08:11:08;133.52;;;16.27;;
54259;SDS011;40172;53.022;7.012;2023-03-01T08:13:36;79.53;;;9.52;;
54259;SDS011;40172;53.022;7.012;2023-03-01T08:16:06;87.40;;;14.05;;
54259;SDS011;40172;53.022;7.012;2023-03-01T08:18:34;119.88;;;19.80;;
54259;SDS011;40172;53.022;7.012;2023-03-01T08:24:00;125.72;;;12.70;;
54259;SDS011;40172;53.022;7.012;2023-03-01T08:26:28;208.02;;;19.30;;
54259;SDS011;40172;53.022;7.012;2023-03-01T08:29:00;158.98;;;18.50;;
54259;SDS011;40172;53.022;7.012;2023-03-01T08:31:30;250.38;;;20.48;;
54259;SDS011;40172;53.022;7.012;2023-03-01T08:34:04;213.32;;;15.27;;
54259;SDS011;40172;53.022;7.012;2023-03-01T08:36:34;199.27;;;18.50;;
54259;SDS011;40172;53.022;7.012;2023-03-01T08:39:02;103.45;;;14.32;;
54259;SDS011;40172;53.022;7.012;2023-03-01T08:41:34;186.82;;;15.38;;
54259;SDS011;40172;53.022;7.012;2023-03-01T08:44:14;248.30;;;21.63;;
54259;SDS011;40172;53.022;7.012;2023-03-01T08:46:49;263.13;;;22.23;;
54259;SDS011;40172;53.022;7.012;2023-03-01T08:49:17;445.83;;;26.48;;
54259;SDS011;40172;53.022;7.012;2023-03-01T08:51:44;320.05;;;22.45;;
54259;SDS011;40172;53.022;7.012;2023-03-01T08:54:17;382.90;;;22.30;;
54259;SDS011;40172;53.022;7.012;2023-03-01T08:56:45;175.48;;;21.38;;
54259;SDS011;40172;53.022;7.012;2023-03-01T08:59:12;144.63;;;16.45;;
54259;SDS011;40172;53.022;7.012;2023-03-01T09:01:42;166.25;;;18.90;;
54259;SDS011;40172;53.022;7.012;2023-03-01T09:04:14;243.55;;;19.38;;
54259;SDS011;40172;53.022;7.012;2023-03-01T09:10:41;298.73;;;18.17;;
54259;SDS011;40172;53.022;7.012;2023-03-01T09:14:04;325.35;;;20.65;;
54259;SDS011;40172;53.022;7.012;2023-03-01T09:17:25;271.60;;;23.30;;
54259;SDS011;40172;53.022;7.012;2023-03-01T09:20:24;296.55;;;20.23;;
54259;SDS011;40172;53.022;7.012;2023-03-01T09:23:26;188.48;;;20.27;;
54259;SDS011;40172;53.022;7.012;2023-03-01T09:34:12;70.00;;;19.40;;
54259;SDS011;40172;53.022;7.012;2023-03-01T09:36:50;52.95;;;19.38;;
54259;SDS011;40172;53.022;7.012;2023-03-01T09:39:16;41.33;;;15.60;;
54259;SDS011;40172;53.022;7.012;2023-03-01T09:44:24;47.92;;;17.17;;
54259;SDS011;40172;53.022;7.012;2023-03-01T09:46:55;85.22;;;17.55;;
54259;SDS011;40172;53.022;7.012;2023-03-01T09:49:25;39.13;;;16.00;;
54259;SDS011;40172;53.022;7.012;2023-03-01T09:52:01;52.22;;;19.25;;
54259;SDS011;40172;53.022;7.012;2023-03-01T09:57:53;31.55;;;15.63;;
54259;SDS011;40172;53.022;7.012;2023-03-01T10:18:11;50.15;;;20.23;;
54259;SDS011;40172;53.022;7.012;2023-03-01T10:20:43;52.35;;;23.35;;
54259;SDS011;40172;53.022;7.012;2023-03-01T10:23:12;41.35;;;19.23;;
54259;SDS011;40172;53.022;7.012;2023-03-01T10:25:43;32.30;;;15.90;;
54259;SDS011;40172;53.022;7.012;2023-03-01T10:30:54;53.15;;;22.83;;
54259;SDS011;40172;53.022;7.012;2023-03-01T10:33:31;56.03;;;22.63;;
54259;SDS011;40172;53.022;7.012;2023-03-01T10:36:00;62.97;;;24.13;;
54259;SDS011;40172;53.022;7.012;2023-03-01T10:38:26;53.35;;;22.55;;
54259;SDS011;40172;53.022;7.012;2023-03-01T10:41:11;51.28;;;18.60;;
54259;SDS011;40172;53.022;7.012;2023-03-01T10:43:58;48.60;;;22.17;;
54259;SDS011;40172;53.022;7.012;2023-03-01T10:46:26;34.75;;;15.30;;
54259;SDS011;40172;53.022;7.012;2023-03-01T10:49:20;45.28;;;32.28;;
54259;SDS011;40172;53.022;7.012;2023-03-01T10:51:51;37.38;;;29.70;;
54259;SDS011;40172;53.022;7.012;2023-03-01T10:54:39;41.50;;;31.75;;
54259;SDS011;40172;53.022;7.012;2023-03-01T10:57:10;34.75;;;25.20;;
54259;SDS011;40172;53.022;7.012;2023-03-01T11:00:00;31.17;;;24.50;;
54259;SDS011;40172;53.022;7.012;2023-03-01T11:02:38;30.65;;;22.17;;
54259;SDS011;40172;53.022;7.012;2023-03-01T11:10:18;28.85;;;21.05;;
54259;SDS011;40172;53.022;7.012;2023-03-01T11:15:43;19.45;;;16.42;;
54259;SDS011;40172;53.022;7.012;2023-03-01T11:18:31;23.95;;;18.73;;
54259;SDS011;40172;53.022;7.012;2023-03-01T11:20:59;16.33;;;8.48;;
54259;SDS011;40172;53.022;7.012;2023-03-01T11:23:30;27.40;;;20.55;;
54259;SDS011;40172;53.022;7.012;2023-03-01T11:26:05;26.98;;;20.10;;
54259;SDS011;40172;53.022;7.012;2023-03-01T11:28:33;28.88;;;20.92;;
54259;SDS011;40172;53.022;7.012;2023-03-01T11:31:05;27.02;;;21.45;;
54259;SDS011;40172;53.022;7.012;2023-03-01T11:33:58;25.77;;;10.25;;
54259;SDS011;40172;53.022;7.012;2023-03-01T11:36:51;15.00;;;7.97;;
54259;SDS011;40172;53.022;7.012;2023-03-01T11:39:39;19.73;;;8.73;;
54259;SDS011;40172;53.022;7.012;2023-03-01T11:42:28;15.15;;;7.13;;
54259;SDS011;40172;53.022;7.012;2023-03-01T11:45:10;25.20;;;17.63;;
54259;SDS011;40172;53.022;7.012;2023-03-01T11:47:59;26.77;;;19.45;;
54259;SDS011;40172;53.022;7.012;2023-03-01T11:50:54;21.45;;;17.90;;
54259;SDS011;40172;53.022;7.012;2023-03-01T11:53:34;24.27;;;19.73;;
54259;SDS011;40172;53.022;7.012;2023-03-01T11:56:05;22.20;;;15.68;;
54259;SDS011;40172;53.022;7.012;2023-03-01T11:58:58;22.45;;;17.52;;
54259;SDS011;40172;53.022;7.012;2023-03-01T12:07:28;24.70;;;18.95;;
54259;SDS011;40172;53.022;7.012;2023-03-01T12:12:48;24.13;;;18.80;;
54259;SDS011;40172;53.022;7.012;2023-03-01T12:21:20;21.45;;;17.33;;
54259;SDS011;40172;53.022;7.012;2023-03-01T12:29:46;23.33;;;16.05;;
54259;SDS011;40172;53.022;7.012;2023-03-01T12:32:24;23.55;;;16.45;;
54259;SDS011;40172;53.022;7.012;2023-03-01T12:49:26;19.73;;;14.50;;
54259;SDS011;40172;53.022;7.012;2023-03-01T12:51:55;16.08;;;13.25;;
54259;SDS011;40172;53.022;7.012;2023-03-01T12:54:31;17.42;;;14.40;;
54259;SDS011;40172;53.022;7.012;2023-03-01T12:57:23;19.70;;;14.25;;
54259;SDS011;40172;53.022;7.012;2023-03-01T13:00:04;16.83;;;13.80;;
54259;SDS011;40172;53.022;7.012;2023-03-01T13:02:45;16.67;;;13.05;;
54259;SDS011;40172;53.022;7.012;2023-03-01T13:08:12;16.42;;;12.90;;
54259;SDS011;40172;53.022;7.012;2023-03-01T13:10:49;16.65;;;12.60;;
54259;SDS011;40172;53.022;7.012;2023-03-01T13:13:21;15.80;;;12.98;;
54259;SDS011;40172;53.022;7.012;2023-03-01T13:15:51;16.73;;;13.07;;
54259;SDS011;40172;53.022;7.012;2023-03-01T13:31:09;16.90;;;13.07;;
54259;SDS011;40172;53.022;7.012;2023-03-01T13:33:55;16.70;;;13.77;;
54259;SDS011;40172;53.022;7.012;2023-03-01T13:38:58;15.68;;;13.82;;
54259;SDS011;40172;53.022;7.012;2023-03-01T13:57:40;16.92;;;13.82;;
54259;SDS011;40172;53.022;7.012;2023-03-01T14:00:24;15.95;;;13.98;;
54259;SDS011;40172;53.022;7.012;2023-03-01T14:03:13;17.10;;;14.55;;
54259;SDS011;40172;53.022;7.012;2023-03-01T14:05:41;19.27;;;13.85;;
54259;SDS011;40172;53.022;7.012;2023-03-01T14:08:22;16.75;;;12.95;;
54259;SDS011;40172;53.022;7.012;2023-03-01T14:10:54;18.45;;;14.82;;
54259;SDS011;40172;53.022;7.012;2023-03-01T14:16:34;17.20;;;13.70;;
54259;SDS011;40172;53.022;7.012;2023-03-01T14:21:41;22.42;;;14.90;;
54259;SDS011;40172;53.022;7.012;2023-03-01T14:24:14;18.23;;;15.05;;
54259;SDS011;40172;53.022;7.012;2023-03-01T14:26:45;17.40;;;14.75;;
54259;SDS011;40172;53.022;7.012;2023-03-01T14:32:24;15.50;;;13.13;;
54259;SDS011;40172;53.022;7.012;2023-03-01T14:34:52;16.63;;;13.27;;
54259;SDS011;40172;53.022;7.012;2023-03-01T14:37:29;17.40;;;14.10;;
54259;SDS011;40172;53.022;7.012;2023-03-01T14:39:59;15.98;;;13.50;;
54259;SDS011;40172;53.022;7.012;2023-03-01T14:42:28;16.90;;;14.48;;
54259;SDS011;40172;53.022;7.012;2023-03-01T14:44:57;17.27;;;14.38;;
54259;SDS011;40172;53.022;7.012;2023-03-01T14:47:26;15.40;;;13.40;;
54259;SDS011;40172;53.022;7.012;2023-03-01T14:50:04;14.88;;;13.15;;
54259;SDS011;40172;53.022;7.012;2023-03-01T14:52:52;17.27;;;14.82;;
54259;SDS011;40172;53.022;7.012;2023-03-01T14:55:24;17.80;;;14.20;;
54259;SDS011;40172;53.022;7.012;2023-03-01T14:57:52;16.63;;;14.60;;
54259;SDS011;40172;53.022;7.012;2023-03-01T15:02:52;18.90;;;14.82;;
54259;SDS011;40172;53.022;7.012;2023-03-01T15:05:22;17.92;;;14.85;;
54259;SDS011;40172;53.022;7.012;2023-03-01T15:07:52;17.08;;;15.27;;
54259;SDS011;40172;53.022;7.012;2023-03-01T15:10:22;18.33;;;15.48;;
54259;SDS011;40172;53.022;7.012;2023-03-01T15:12:51;20.50;;;16.25;;
54259;SDS011;40172;53.022;7.012;2023-03-01T15:18:01;18.83;;;15.90;;
54259;SDS011;40172;53.022;7.012;2023-03-01T15:20:29;19.05;;;16.30;;
54259;SDS011;40172;53.022;7.012;2023-03-01T15:23:00;17.67;;;15.65;;
54259;SDS011;40172;53.022;7.012;2023-03-01T15:25:27;18.35;;;16.10;;
54259;SDS011;40172;53.022;7.012;2023-03-01T15:27:55;18.98;;;15.82;;
54259;SDS011;40172;53.022;7.012;2023-03-01T15:35:45;20.07;;;15.67;;
54259;SDS011;40172;53.022;7.012;2023-03-01T15:38:35;19.40;;;16.45;;
54259;SDS011;40172;53.022;7.012;2023-03-01T15:41:48;20.83;;;16.27;;
54259;SDS011;40172;53.022;7.012;2023-03-01T15:44:35;18.73;;;15.73;;
54259;SDS011;40172;53.022;7.012;2023-03-01T15:47:00;19.38;;;15.95;;
54259;SDS011;40172;53.022;7.012;2023-03-01T15:49:36;21.13;;;16.48;;
54259;SDS011;40172;53.022;7.012;2023-03-01T15:52:05;22.33;;;16.80;;
54259;SDS011;40172;53.022;7.012;2023-03-01T15:54:38;21.42;;;17.20;;
54259;SDS011;40172;53.022;7.012;2023-03-01T15:57:08;21.40;;;17.33;;
54259;SDS011;40172;53.022;7.012;2023-03-01T15:59:38;23.35;;;17.20;;
54259;SDS011;40172;53.022;7.012;2023-03-01T16:02:08;19.83;;;17.73;;
54259;SDS011;40172;53.022;7.012;2023-03-01T16:04:35;19.92;;;17.83;;
54259;SDS011;40172;53.022;7.012;2023-03-01T16:07:01;20.50;;;18.13;;
54259;SDS011;40172;53.022;7.012;2023-03-01T16:09:27;22.75;;;18.73;;
54259;SDS011;40172;53.022;7.012;2023-03-01T16:11:53;22.40;;;19.10;;
54259;SDS011;40172;53.022;7.012;2023-03-01T16:14:19;23.95;;;18.45;;
54259;SDS011;40172;53.022;7.012;2023-03-01T16:16:45;23.15;;;19.20;;
54259;SDS011;40172;53.022;7.012;2023-03-01T16:19:13;22.63;;;19.13;;
54259;SDS011;40172;53.022;7.012;2023-03-01T16:21:39;22.52;;;18.73;;
54259;SDS011;40172;53.022;7.012;2023-03-01T16:24:07;25.15;;;19.67;;
54259;SDS011;40172;53.022;7.012;2023-03-01T16:26:33;25.52;;;19.80;;
54259;SDS011;40172;53.022;7.012;2023-03-01T16:29:00;24.52;;;19.63;;
54259;SDS011;40172;53.022;7.012;2023-03-01T16:31:26;22.67;;;18.98;;
54259;SDS011;40172;53.022;7.012;2023-03-01T16:33:53;22.67;;;18.15;;
54259;SDS011;40172;53.022;7.012;2023-03-01T16:36:20;23.45;;;19.13;;
54259;SDS011;40172;53.022;7.012;2023-03-01T16:38:48;24.38;;;19.35;;
54259;SDS011;40172;53.022;7.012;2023-03-01T16:41:16;23.38;;;18.83;;
54259;SDS011;40172;53.022;7.012;2023-03-01T16:43:43;22.45;;;18.42;;
54259;SDS011;40172;53.022;7.012;2023-03-01T16:46:12;24.15;;;19.00;;
54259;SDS011;40172;53.022;7.012;2023-03-01T16:48:39;22.30;;;19.23;;
54259;SDS011;40172;53.022;7.012;2023-03-01T16:51:06;24.15;;;19.65;;
54259;SDS011;40172;53.022;7.012;2023-03-01T16:53:33;22.80;;;19.13;;
54259;SDS011;40172;53.022;7.012;2023-03-01T16:56:01;24.50;;;19.23;;
54259;SDS011;40172;53.022;7.012;2023-03-01T16:58:28;22.80;;;19.50;;
54259;SDS011;40172;53.022;7.012;2023-03-01T17:00:55;27.92;;;20.48;;
54259;SDS011;40172;53.022;7.012;2023-03-01T17:03:24;22.83;;;20.00;;
54259;SDS011;40172;53.022;7.012;2023-03-01T17:05:51;23.85;;;21.25;;
54259;SDS011;40172;53.022;7.012;2023-03-01T17:08:17;25.45;;;20.77;;
54259;SDS011;40172;53.022;7.012;2023-03-01T17:10:43;25.13;;;21.58;;
54259;SDS011;40172;53.022;7.012;2023-03-01T17:13:09;24.92;;;21.80;;
54259;SDS011;40172;53.022;7.012;2023-03-01T17:15:39;26.67;;;23.20;;
54259;SDS011;40172;53.022;7.012;2023-03-01T17:18:05;28.27;;;23.45;;
54259;SDS011;40172;53.022;7.012;2023-03-01T17:20:31;25.88;;;23.10;;
54259;SDS011;40172;53.022;7.012;2023-03-01T17:22:57;27.30;;;22.95;;
54259;SDS011;40172;53.022;7.012;2023-03-01T17:25:22;28.20;;;24.10;;
54259;SDS011;40172;53.022;7.012;2023-03-01T17:27:48;26.58;;;23.60;;
54259;SDS011;40172;53.022;7.012;2023-03-01T17:30:14;28.40;;;24.13;;
54259;SDS011;40172;53.022;7.012;2023-03-01T17:32:40;28.27;;;24.63;;